Time;durP1;ratioP1;P1;durP2;ratioP2;P2;SDS_P1;SDS_P2;PMS_P1;PMS_P2;Temp;Humidity;BMP_temperature;BMP_pressure;BME280_temperature;BME280_humidity;BME280_pressure;Samples;Min_cycle;Max_cycle;Signal;HPM_P1;HPM_P2
2022/08/01 00:02:00;;;;;;;8.32;0.57;;;;;;;17.73;100.00;101157.94;5017273;28;20099;-58
2022/08/01 00:04:26;;;;;;;2.08;0.32;;;;;;;17.73;100.00;101157.94;5021711;28;20030;-57
2022/08/01 00:06:51;;;;;;;4.82;0.43;;;;;;;17.67;100.00;101156.97;5023222;28;20488;-58
2022/08/01 00:09:16;;;;;;;0.50;0.15;;;;;;;17.61;100.00;101153.31;5017422;28;20045;-54
2022/08/01 00:11:42;;;;;;;0.28;0.28;;;;;;;17.61;100.00;101161.34;5017529;28;20558;-56
2022/08/01 00:14:09;;;;;;;0.88;0.88;;;;;;;17.60;100.00;101157.03;5018749;28;20033;-58
2022/08/01 00:16:35;;;;;;;0.60;0.50;;;;;;;17.56;100.00;101153.16;5019718;28;20029;-58
2022/08/01 00:19:00;;;;;;;0.57;0.40;;;;;;;17.53;100.00;101152.75;5027203;28;20401;-55
2022/08/01 00:21:25;;;;;;;3.92;0.30;;;;;;;17.49;100.00;101144.34;5026968;28;20057;-54
2022/08/01 00:23:51;;;;;;;0.70;0.60;;;;;;;17.44;100.00;101149.56;5021821;28;20122;-57
2022/08/01 00:26:16;;;;;;;0.80;0.40;;;;;;;17.43;100.00;101153.28;5019744;28;20029;-58
2022/08/01 00:28:41;;;;;;;1.02;0.55;;;;;;;17.42;100.00;101156.97;5032020;28;20028;-59
2022/08/01 00:31:07;;;;;;;0.40;0.10;;;;;;;17.44;100.00;101162.97;5017489;28;20033;-59
2022/08/01 00:33:33;;;;;;;1.65;1.48;;;;;;;17.43;100.00;101156.78;5021746;28;20107;-56
2022/08/01 00:35:58;;;;;;;0.40;0.38;;;;;;;17.42;100.00;101154.31;5023539;28;20042;-58
2022/08/01 00:38:23;;;;;;;1.02;1.02;;;;;;;17.40;100.00;101156.41;5032456;28;20033;-56
2022/08/01 00:40:49;;;;;;;1.05;1.00;;;;;;;17.40;100.00;101159.09;5033994;28;20021;-55
2022/08/01 00:43:15;;;;;;;4.28;0.82;;;;;;;17.37;100.00;101157.66;5024180;28;20451;-55
2022/08/01 00:45:40;;;;;;;0.40;0.40;;;;;;;17.36;100.00;101158.69;5022661;28;21063;-56
2022/08/01 00:48:06;;;;;;;0.30;0.30;;;;;;;17.35;100.00;101159.75;5024110;28;20367;-55
2022/08/01 00:50:32;;;;;;;0.90;0.70;;;;;;;17.33;100.00;101155.63;5028900;28;20061;-57
2022/08/01 00:52:58;;;;;;;1.00;1.00;;;;;;;17.31;100.00;101155.84;5014338;28;20025;-58
2022/08/01 00:55:24;;;;;;;0.63;0.57;;;;;;;17.25;100.00;101167.44;5017425;28;20032;-57
2022/08/01 00:57:49;;;;;;;1.13;0.70;;;;;;;17.20;100.00;101165.41;5024036;28;20025;-58
2022/08/01 01:00:15;;;;;;;0.47;0.47;;;;;;;17.21;100.00;101166.22;5048751;28;20256;-59
2022/08/01 01:02:40;;;;;;;0.47;0.47;;;;;;;17.23;100.00;101169.53;5013478;28;20972;-57
2022/08/01 01:05:07;;;;;;;0.55;0.40;;;;;;;17.25;100.00;101169.31;5028517;28;20051;-53
2022/08/01 01:07:42;;;;;;;1.23;0.70;;;;;;;17.25;100.00;101175.50;5020592;28;20366;-57
2022/08/01 01:10:31;;;;;;;1.08;0.60;;;;;;;17.27;100.00;101175.25;5024797;28;20053;-57
2022/08/01 01:13:17;;;;;;;1.85;0.57;;;;;;;17.31;100.00;101171.94;5021662;28;20053;-59
2022/08/01 01:16:01;;;;;;;0.90;0.45;;;;;;;17.31;100.00;101173.78;5015436;28;20030;-58
2022/08/01 01:18:35;;;;;;;0.30;0.30;;;;;;;17.30;100.00;101169.47;5014954;28;20051;-58
2022/08/01 01:21:19;;;;;;;0.60;0.60;;;;;;;17.27;100.00;101173.41;5023108;28;20025;-55
2022/08/01 01:23:57;;;;;;;4.78;0.50;;;;;;;17.26;100.00;101170.94;5018972;28;20040;-58
2022/08/01 01:26:57;;;;;;;0.40;0.40;;;;;;;17.26;100.00;101163.72;5020213;28;20026;-57
2022/08/01 01:29:27;;;;;;;0.40;0.40;;;;;;;17.25;100.00;101172.00;5021621;28;20577;-56
2022/08/01 01:32:02;;;;;;;0.30;0.30;;;;;;;17.25;100.00;101169.31;5026416;28;20029;-58
2022/08/01 01:34:29;;;;;;;1.02;0.20;;;;;;;17.22;100.00;101162.53;5023090;28;20278;-59
2022/08/01 01:36:58;;;;;;;0.15;0.15;;;;;;;17.19;100.00;101160.25;5023062;28;20037;-58
2022/08/01 01:39:26;;;;;;;0.98;0.20;;;;;;;17.16;100.00;101158.84;5023322;28;20112;-60
2022/08/01 01:41:54;;;;;;;0.57;0.10;;;;;;;17.13;100.00;101166.50;5016218;28;20112;-56
2022/08/01 01:44:20;;;;;;;1.55;0.50;;;;;;;17.13;100.00;101169.19;5028949;28;20029;-55
2022/08/01 01:46:47;;;;;;;1.08;0.57;;;;;;;17.11;100.00;101166.72;5020476;28;20541;-57
2022/08/01 01:49:13;;;;;;;0.52;0.15;;;;;;;17.10;100.00;101159.72;5024939;28;20125;-53
2022/08/01 01:51:41;;;;;;;0.30;0.30;;;;;;;17.11;100.00;101160.53;5016666;28;20068;-58
2022/08/01 01:54:08;;;;;;;0.52;0.50;;;;;;;17.09;100.00;101157.25;5018573;28;20397;-58
2022/08/01 01:56:48;;;;;;;0.43;0.28;;;;;;;17.07;100.00;101149.44;5017913;28;20402;-58
2022/08/01 01:59:18;;;;;;;0.60;0.50;;;;;;;17.08;100.00;101151.06;5029826;28;20486;-59
2022/08/01 02:01:46;;;;;;;0.50;0.50;;;;;;;17.07;100.00;101156.69;5022697;28;20089;-58
2022/08/01 02:04:12;;;;;;;0.88;0.55;;;;;;;17.09;100.00;101155.41;5020648;28;20033;-57
2022/08/01 02:06:38;;;;;;;0.90;0.28;;;;;;;17.10;100.00;101157.03;5019965;28;20040;-54
2022/08/01 02:09:05;;;;;;;1.45;0.20;;;;;;;17.09;100.00;101147.38;5018013;28;20046;-57
2022/08/01 02:11:30;;;;;;;1.65;0.30;;;;;;;17.09;100.00;101152.75;5031388;28;20150;-58
2022/08/01 02:14:00;;;;;;;0.35;0.35;;;;;;;17.09;100.00;101149.22;5023173;28;20026;-56
2022/08/01 02:16:31;;;;;;;1.95;0.82;;;;;;;17.11;100.00;101147.16;5028341;28;20025;-58
2022/08/01 02:18:56;;;;;;;0.50;0.50;;;;;;;17.11;100.00;101147.97;5027194;28;20037;-56
2022/08/01 02:21:32;;;;;;;3.05;0.65;;;;;;;17.09;100.00;101149.22;5020317;28;20035;-56
2022/08/01 02:24:08;;;;;;;7.90;1.48;;;;;;;17.07;100.00;101149.44;5014067;28;20037;-58
2022/08/01 02:26:38;;;;;;;0.35;0.35;;;;;;;17.06;100.00;101150.47;5016013;28;20108;-58
2022/08/01 02:29:07;;;;;;;0.30;0.30;;;;;;;17.06;100.00;101141.63;5023445;28;20029;-58
2022/08/01 02:31:35;;;;;;;1.90;0.50;;;;;;;17.05;100.00;101134.63;5029870;28;20033;-60
2022/08/01 02:34:05;;;;;;;0.50;0.50;;;;;;;17.05;100.00;101142.66;5016787;28;20059;-59
2022/08/01 02:36:35;;;;;;;1.00;0.30;;;;;;;17.02;100.00;101146.59;5022683;28;20029;-59
2022/08/01 02:39:08;;;;;;;0.80;0.60;;;;;;;16.96;100.00;101132.22;5011527;28;20026;-58
2022/08/01 02:41:38;;;;;;;0.35;0.35;;;;;;;16.95;100.00;101143.16;5022610;28;20026;-58
2022/08/01 02:44:06;;;;;;;0.73;0.40;;;;;;;16.95;100.00;101135.91;5023907;28;20498;-60
2022/08/01 02:46:40;;;;;;;0.60;0.35;;;;;;;16.95;100.00;101135.91;5021485;28;20064;-60
2022/08/01 02:49:10;;;;;;;0.28;0.28;;;;;;;16.94;100.00;101134.28;5023689;28;20033;-58
2022/08/01 02:51:36;;;;;;;0.73;0.70;;;;;;;16.91;100.00;101139.25;5012787;28;20041;-58
2022/08/01 02:54:04;;;;;;;1.92;0.40;;;;;;;16.90;100.00;101137.63;5025574;28;20049;-59
2022/08/01 02:56:34;;;;;;;0.30;0.20;;;;;;;16.88;100.00;101134.31;5024085;28;20103;-59
2022/08/01 02:59:11;;;;;;;1.02;0.40;;;;;;;16.81;100.00;101126.34;5017503;28;20076;-58
2022/08/01 03:01:38;;;;;;;0.40;0.40;;;;;;;16.76;100.00;101126.97;5019732;28;20117;-59
2022/08/01 03:04:05;;;;;;;0.82;0.28;;;;;;;16.71;100.00;101134.81;5024439;28;20036;-59
2022/08/01 03:06:32;;;;;;;1.77;0.52;;;;;;;16.66;100.00;101129.28;5022952;28;20057;-54
2022/08/01 03:08:59;;;;;;;11.93;0.25;;;;;;;16.60;100.00;101132.00;5023513;28;20026;-57
2022/08/01 03:11:28;;;;;;;0.28;0.28;;;;;;;16.59;100.00;101136.53;5028497;28;20049;-58
2022/08/01 03:13:54;;;;;;;2.53;0.95;;;;;;;16.62;100.00;101146.81;5027673;28;20043;-58
2022/08/01 03:16:23;;;;;;;0.30;0.30;;;;;;;16.63;100.00;101151.16;5026314;28;20378;-55
2022/08/01 03:18:49;;;;;;;0.30;0.30;;;;;;;16.65;100.00;101151.75;5026963;28;20499;-58
2022/08/01 03:21:16;;;;;;;0.60;0.40;;;;;;;16.67;100.00;101160.38;5021758;28;20091;-59
2022/08/01 03:23:43;;;;;;;0.43;0.43;;;;;;;16.66;100.00;101150.72;5026993;28;20029;-60
2022/08/01 03:26:10;;;;;;;0.43;0.32;;;;;;;16.66;100.00;101145.34;5028053;28;20489;-55
2022/08/01 03:28:37;;;;;;;3.92;0.93;;;;;;;16.65;100.00;101146.41;5029201;28;20021;-57
2022/08/01 03:31:02;;;;;;;0.65;0.38;;;;;;;16.65;100.00;101141.06;5029712;28;20471;-58
2022/08/01 03:33:29;;;;;;;0.52;0.52;;;;;;;16.68;100.00;101147.84;5025818;28;20384;-57
2022/08/01 03:35:55;;;;;;;1.10;0.20;;;;;;;16.68;100.00;101147.84;5029273;28;20025;-57
2022/08/01 03:38:26;;;;;;;2.13;0.55;;;;;;;16.67;100.00;101147.00;5026840;28;20398;-54
2022/08/01 03:41:02;;;;;;;3.63;0.30;;;;;;;16.66;100.00;101141.88;5020060;28;20470;-59
2022/08/01 03:43:36;;;;;;;1.92;0.55;;;;;;;16.62;100.00;101136.09;5017939;28;20319;-59
2022/08/01 03:46:07;;;;;;;0.30;0.30;;;;;;;16.58;100.00;101148.28;5033218;28;20029;-57
2022/08/01 03:48:39;;;;;;;0.63;0.38;;;;;;;16.56;100.00;101139.66;5029365;28;20121;-58
2022/08/01 03:51:05;;;;;;;;;;;;;;;16.56;100.00;101145.81;5022168;28;20120;-58
2022/08/01 03:53:32;;;;;;;1.75;0.57;;;;;;;16.53;100.00;101138.22;5022459;28;19921;-59
2022/08/01 03:56:00;;;;;;;1.23;0.40;;;;;;;16.52;100.00;101141.09;5019140;28;20017;-55
2022/08/01 03:58:27;;;;;;;1.33;0.43;;;;;;;16.47;100.00;101138.25;5024800;28;20018;-58
2022/08/01 04:00:54;;;;;;;1.23;0.30;;;;;;;16.41;100.00;101137.25;5024789;28;20026;-58
2022/08/01 04:03:20;;;;;;;0.35;0.22;;;;;;;16.39;100.00;101141.16;5033364;28;20037;-58
2022/08/01 04:05:45;;;;;;;0.28;0.28;;;;;;;16.39;100.00;101141.16;5024830;28;20049;-58
2022/08/01 04:08:10;;;;;;;1.17;0.73;;;;;;;16.36;100.00;101137.88;5031883;28;20038;-55
2022/08/01 04:10:36;;;;;;;3.40;1.10;;;;;;;16.35;100.00;101133.56;5019550;28;20448;-58
2022/08/01 04:13:02;;;;;;;0.65;0.65;;;;;;;16.32;100.00;101128.66;5027601;28;20438;-57
2022/08/01 04:15:28;;;;;;;0.60;0.60;;;;;;;16.30;100.00;101140.59;5031843;28;20136;-56
2022/08/01 04:17:53;;;;;;;0.20;0.20;;;;;;;16.29;100.00;101137.13;5019511;28;20041;-59
2022/08/01 04:20:19;;;;;;;1.02;0.40;;;;;;;16.33;100.00;101143.66;5021169;28;21530;-58
2022/08/01 04:22:44;;;;;;;0.25;0.25;;;;;;;16.36;100.00;101143.22;5023214;28;20026;-59
2022/08/01 04:25:33;;;;;;;0.68;0.38;;;;;;;16.39;100.00;101150.00;5010665;28;20498;-58
2022/08/01 04:28:03;;;;;;;0.45;0.45;;;;;;;16.36;100.00;101143.22;5013257;28;20716;-54
2022/08/01 04:30:33;;;;;;;0.60;0.40;;;;;;;16.37;100.00;101154.78;5023758;28;20373;-58
2022/08/01 04:33:00;;;;;;;0.73;0.52;;;;;;;16.37;100.00;101149.44;5021863;28;20025;-59
2022/08/01 04:35:27;;;;;;;2.60;0.80;;;;;;;16.34;100.00;101150.69;5024188;28;20033;-59
2022/08/01 04:37:53;;;;;;;0.40;0.20;;;;;;;16.31;100.00;101143.06;5020858;28;20052;-59
2022/08/01 04:40:21;;;;;;;0.52;0.30;;;;;;;16.28;100.00;101148.03;5018533;28;20088;-58
2022/08/01 04:42:48;;;;;;;0.55;0.30;;;;;;;16.24;100.00;101144.97;5018522;28;20463;-58
2022/08/01 04:45:15;;;;;;;1.00;0.28;;;;;;;16.20;100.00;101142.91;5007402;28;21092;-58
2022/08/01 04:47:42;;;;;;;0.30;0.30;;;;;;;16.18;100.00;101143.13;5022257;28;20029;-59
2022/08/01 04:50:09;;;;;;;0.40;0.40;;;;;;;16.14;100.00;101144.59;5022439;28;20026;-59
2022/08/01 04:52:36;;;;;;;0.60;0.60;;;;;;;16.09;100.00;101147.88;5015088;28;20549;-58
2022/08/01 04:55:02;;;;;;;0.40;0.40;;;;;;;16.06;100.00;101148.31;5016546;28;20080;-58
2022/08/01 04:57:27;;;;;;;0.57;0.57;;;;;;;16.05;100.00;101151.19;5017520;28;20017;-57
2022/08/01 04:59:56;;;;;;;1.52;0.60;;;;;;;16.05;100.00;101156.53;5021517;28;20030;-59
2022/08/01 05:02:22;;;;;;;0.25;0.20;;;;;;;16.06;100.00;101160.88;5017906;28;20053;-59
2022/08/01 05:04:47;;;;;;;0.45;0.45;;;;;;;16.10;100.00;101159.41;5011145;28;20061;-56
2022/08/01 05:07:13;;;;;;;1.08;0.22;;;;;;;16.15;100.00;101172.97;5015742;28;20022;-58
2022/08/01 05:09:46;;;;;;;1.58;0.65;;;;;;;16.20;100.00;101170.47;5013080;28;20379;-57
2022/08/01 05:12:11;;;;;;;2.35;0.38;;;;;;;16.25;100.00;101180.56;5016012;28;20374;-58
2022/08/01 05:14:37;;;;;;;0.77;0.77;;;;;;;16.29;100.00;101173.75;5011496;28;20109;-58
2022/08/01 05:17:04;;;;;;;1.40;0.47;;;;;;;16.34;100.00;101177.44;5013113;28;20116;-55
2022/08/01 05:19:31;;;;;;;1.25;0.55;;;;;;;16.37;100.00;101165.50;5021496;28;20429;-56
2022/08/01 05:21:58;;;;;;;1.25;0.40;;;;;;;16.39;100.00;101170.63;5016184;28;20072;-58
2022/08/01 05:24:23;;;;;;;1.35;0.30;;;;;;;16.42;100.00;101172.84;5017132;28;20386;-57
2022/08/01 05:26:49;;;;;;;1.23;0.68;;;;;;;16.47;100.00;101168.53;5020117;28;20030;-58
2022/08/01 05:29:15;;;;;;;0.75;0.50;;;;;;;16.53;100.00;101170.34;5024994;28;20026;-51
2022/08/01 05:31:40;;;;;;;0.80;0.80;;;;;;;16.60;100.00;101164.97;5021849;28;20044;-59
2022/08/01 05:34:06;;;;;;;3.90;0.70;;;;;;;16.72;100.00;101168.59;5023236;28;20393;-56
2022/08/01 05:36:31;;;;;;;0.47;0.22;;;;;;;16.89;100.00;101168.94;5029384;28;20027;-57
2022/08/01 05:38:57;;;;;;;1.38;0.60;;;;;;;17.03;100.00;101166.97;5025100;28;20503;-58
2022/08/01 05:41:22;;;;;;;0.20;0.20;;;;;;;17.11;100.00;101166.72;5027470;28;20041;-58
2022/08/01 05:43:47;;;;;;;1.88;0.47;;;;;;;17.09;100.00;101168.81;5031860;28;20091;-55
2022/08/01 05:46:13;;;;;;;3.05;0.43;;;;;;;17.15;100.00;101167.94;5035917;28;20037;-59
2022/08/01 05:48:38;;;;;;;2.05;0.75;;;;;;;17.24;100.00;101173.84;5021561;28;20034;-55
2022/08/01 05:51:04;;;;;;;0.93;0.40;;;;;;;17.29;100.00;101157.91;5012693;28;20052;-57
2022/08/01 05:53:29;;;;;;;1.23;0.65;;;;;;;17.31;100.00;101160.38;5020168;28;20037;-58
2022/08/01 05:55:55;;;;;;;0.88;0.68;;;;;;;17.27;100.00;101160.03;5032473;28;20033;-57
2022/08/01 05:58:21;;;;;;;1.35;0.52;;;;;;;17.33;100.00;101161.81;5027252;28;20033;-59
2022/08/01 06:00:46;;;;;;;0.40;0.40;;;;;;;17.29;100.00;101157.91;5022860;28;20029;-59
2022/08/01 06:03:11;;;;;;;0.77;0.77;;;;;;;17.23;100.00;101166.84;5024727;28;20172;-57
2022/08/01 06:05:37;;;;;;;0.98;0.52;;;;;;;17.22;100.00;101168.72;5015821;28;20026;-58
2022/08/01 06:08:03;;;;;;;1.27;0.77;;;;;;;17.17;100.00;101160.50;5022044;28;20034;-59
2022/08/01 06:10:28;;;;;;;1.27;0.35;;;;;;;17.11;100.00;101157.84;5021940;28;20045;-55
2022/08/01 06:12:54;;;;;;;0.30;0.30;;;;;;;17.16;100.00;101166.88;5024114;28;20077;-57
2022/08/01 06:15:19;;;;;;;2.85;0.70;;;;;;;17.20;100.00;101167.28;5013923;28;20025;-59
2022/08/01 06:17:45;;;;;;;4.40;1.02;;;;;;;17.18;100.00;101166.69;5017618;28;20470;-59
2022/08/01 06:20:10;;;;;;;0.98;0.88;;;;;;;17.23;100.00;101170.34;5022961;28;20029;-57
2022/08/01 06:22:36;;;;;;;0.77;0.77;;;;;;;17.31;100.00;101165.75;5019665;28;20025;-57
2022/08/01 06:25:01;;;;;;;0.38;0.32;;;;;;;17.31;100.00;101177.28;5025826;28;20025;-58
2022/08/01 06:27:26;;;;;;;5.00;1.15;;;;;;;17.26;100.00;101170.94;5035525;28;20336;-57
2022/08/01 06:29:55;;;;;;;2.85;1.05;;;;;;;17.22;100.00;101174.06;5030572;28;20438;-59
2022/08/01 06:32:22;;;;;;;1.42;1.33;;;;;;;17.25;100.00;101175.50;5023559;28;20046;-54
2022/08/01 06:34:47;;;;;;;0.77;0.70;;;;;;;17.26;100.00;101169.06;5029220;28;20369;-57
2022/08/01 06:37:14;;;;;;;2.22;0.93;;;;;;;17.32;100.00;101178.09;5040277;28;20056;-56
2022/08/01 06:39:39;;;;;;;2.83;0.57;;;;;;;17.35;100.00;101180.38;5025301;28;20025;-58
2022/08/01 06:42:05;;;;;;;1.98;0.30;;;;;;;17.27;100.00;101177.94;5027719;28;20048;-57
2022/08/01 06:44:30;;;;;;;1.88;0.50;;;;;;;17.25;100.00;101175.50;5030901;28;20031;-59
2022/08/01 06:46:58;;;;;;;1.85;0.20;;;;;;;17.26;100.00;101178.97;5032862;28;20079;-59
2022/08/01 06:49:24;;;;;;;1.08;0.43;;;;;;;17.25;100.00;101177.34;5021060;28;20030;-59
2022/08/01 06:51:49;;;;;;;3.55;0.50;;;;;;;17.33;100.00;101179.75;5016741;28;20084;-59
2022/08/01 06:54:15;;;;;;;1.58;0.30;;;;;;;17.45;100.00;101172.66;5017818;28;20445;-58
2022/08/01 06:56:41;;;;;;;0.47;0.20;;;;;;;17.51;100.00;101171.75;5029578;28;20548;-59
2022/08/01 06:59:06;;;;;;;1.00;0.60;;;;;;;17.54;100.00;101170.50;5026990;28;20030;-59
2022/08/01 07:01:32;;;;;;;3.20;0.50;;;;;;;17.62;100.00;101171.03;5022018;28;20107;-59
2022/08/01 07:03:57;;;;;;;3.17;1.50;;;;;;;17.63;100.00;101170.00;5022930;28;20029;-59
2022/08/01 07:06:23;;;;;;;3.03;0.70;;;;;;;17.69;100.00;101167.50;5034672;28;20048;-55
2022/08/01 07:08:49;;;;;;;6.20;1.08;;;;;;;17.69;100.00;101173.66;5024629;28;20111;-60
2022/08/01 07:11:14;;;;;;;13.38;1.25;;;;;;;17.74;100.00;101171.13;5025661;28;20680;-59
2022/08/01 07:13:40;;;;;;;1.20;0.77;;;;;;;17.81;100.00;101173.78;5019320;28;20034;-59
2022/08/01 07:16:05;;;;;;;2.88;1.15;;;;;;;17.92;100.00;101174.91;5025516;28;20042;-59
2022/08/01 07:18:31;;;;;;;0.88;0.40;;;;;;;18.00;100.00;101170.06;5020660;28;20036;-59
2022/08/01 07:20:56;;;;;;;0.77;0.77;;;;;;;18.08;100.00;101171.63;5027690;28;20024;-52
2022/08/01 07:23:22;;;;;;;2.15;0.13;;;;;;;18.03;100.00;101161.56;5039599;28;20144;-57
2022/08/01 07:25:48;;;;;;;3.00;1.40;;;;;;;18.16;100.00;101157.91;5023601;28;20033;-58
2022/08/01 07:28:14;;;;;;;2.15;0.40;;;;;;;18.14;100.00;101153.81;5022732;28;20032;-58
2022/08/01 07:30:41;;;;;;;0.20;0.13;;;;;;;18.22;100.00;101158.88;5018290;28;20022;-58
2022/08/01 07:33:07;;;;;;;1.73;0.20;;;;;;;18.19;100.00;101157.44;5017209;28;20033;-54
2022/08/01 07:35:33;;;;;;;1.65;0.32;;;;;;;17.98;100.00;101153.38;5028012;28;20109;-55
2022/08/01 07:37:58;;;;;;;0.40;0.40;;;;;;;17.92;100.00;101151.59;5031698;28;20018;-58
2022/08/01 07:40:23;;;;;;;5.82;1.55;;;;;;;17.85;100.00;101157.00;5031670;28;20017;-58
2022/08/01 07:42:49;;;;;;;1.52;0.20;;;;;;;17.86;100.00;101163.19;5015870;28;20040;-55
2022/08/01 07:45:15;;;;;;;3.40;0.55;;;;;;;17.83;100.00;101169.00;5025657;28;20025;-57
2022/08/01 07:47:40;;;;;;;1.90;0.30;;;;;;;17.90;100.00;101169.75;5024569;28;20041;-56
2022/08/01 07:50:07;;;;;;;0.80;0.22;;;;;;;18.03;100.00;101168.81;5029025;28;20483;-57
2022/08/01 07:52:32;;;;;;;1.65;0.45;;;;;;;18.02;100.00;101172.53;5023601;28;20482;-56
2022/08/01 07:54:58;;;;;;;3.50;0.30;;;;;;;18.02;100.00;101177.91;5027423;28;20029;-54
2022/08/01 07:57:24;;;;;;;1.27;0.55;;;;;;;17.98;100.00;101177.50;5018504;28;20048;-51
2022/08/01 07:59:50;;;;;;;0.52;0.52;;;;;;;18.01;100.00;101171.69;5022777;28;20033;-57
2022/08/01 08:02:15;;;;;;;1.42;0.30;;;;;;;18.19;100.00;101178.09;5016745;28;20475;-57
2022/08/01 08:04:41;;;;;;;1.52;1.08;;;;;;;18.29;100.00;101168.47;5026989;28;20025;-59
2022/08/01 08:07:06;;;;;;;3.00;0.20;;;;;;;18.40;100.00;101174.13;5021278;28;20024;-56
2022/08/01 08:09:32;;;;;;;1.70;0.43;;;;;;;18.39;100.00;101173.31;5026052;28;20557;-49
2022/08/01 08:11:58;;;;;;;1.45;0.70;;;;;;;18.36;100.00;101178.34;5020190;28;20398;-57
2022/08/01 08:14:23;;;;;;;1.80;0.20;;;;;;;18.39;100.00;101181.38;5023704;28;20108;-58
2022/08/01 08:16:50;;;;;;;0.90;0.55;;;;;;;18.47;100.00;101178.38;5035538;28;20060;-57
2022/08/01 08:19:15;;;;;;;0.77;0.38;;;;;;;18.62;100.00;101172.63;5029200;28;20037;-55
2022/08/01 08:21:41;;;;;;;5.70;0.60;;;;;;;18.69;100.00;101172.50;5027904;28;20410;-56
2022/08/01 08:24:19;;;;;;;1.52;0.43;;;;;;;18.74;100.00;101180.69;5029924;28;20427;-58
2022/08/01 08:26:46;;;;;;;5.72;0.50;;;;;;;18.70;100.00;101180.34;5021875;28;20122;-58
2022/08/01 08:29:11;;;;;;;1.63;0.60;;;;;;;18.64;100.00;101185.78;5031726;28;20044;-56
2022/08/01 08:31:37;;;;;;;1.52;0.43;;;;;;;18.76;100.00;101189.38;5035898;28;20043;-53
2022/08/01 08:34:02;;;;;;;0.40;0.40;;;;;;;18.98;100.00;101180.84;5025811;28;20462;-57
2022/08/01 08:36:28;;;;;;;2.45;0.45;;;;;;;19.17;100.00;101177.81;5021284;28;20066;-56
2022/08/01 08:38:54;;;;;;;7.78;0.63;;;;;;;19.16;100.00;101172.69;5022214;28;20361;-51
2022/08/01 08:41:19;;;;;;;2.90;0.82;;;;;;;19.09;100.00;101170.09;5023104;28;20033;-53
2022/08/01 08:43:45;;;;;;;1.25;0.30;;;;;;;19.06;100.00;101170.56;5030099;28;20029;-53
2022/08/01 08:46:11;;;;;;;0.88;0.20;;;;;;;19.10;100.00;101157.47;5021708;28;20132;-54
2022/08/01 08:48:39;;;;;;;2.20;0.30;;;;;;;19.20;100.00;101154.22;5028586;28;20033;-55
2022/08/01 08:51:05;;;;;;;2.03;0.70;;;;;;;19.38;100.00;101149.53;5021986;28;20116;-56
2022/08/01 08:53:33;;;;;;;2.45;0.70;;;;;;;19.71;100.00;101156.25;5030051;28;20386;-56
2022/08/01 08:55:59;;;;;;;1.15;0.40;;;;;;;20.01;100.00;101149.91;5033836;28;20021;-56
2022/08/01 08:58:26;;;;;;;1.00;0.57;;;;;;;20.02;100.00;101144.25;5027263;28;20056;-54
2022/08/01 09:00:54;;;;;;;3.00;0.50;;;;;;;20.10;100.00;101145.78;5037470;28;20021;-54
2022/08/01 09:03:19;;;;;;;2.08;1.40;;;;;;;20.11;100.00;101146.56;5025217;28;20033;-52
2022/08/01 09:05:44;;;;;;;5.25;0.63;;;;;;;20.05;100.00;101143.78;5030288;28;20094;-52
2022/08/01 09:08:10;;;;;;;2.75;0.75;;;;;;;20.18;100.00;101145.38;5031611;28;20040;-53
2022/08/01 09:10:35;;;;;;;13.80;1.55;;;;;;;20.40;100.00;101145.56;5023095;28;20420;-53
2022/08/01 09:13:10;;;;;;;3.70;1.15;;;;;;;20.49;100.00;101143.28;5028680;28;20044;-54
2022/08/01 09:15:50;;;;;;;5.93;1.27;;;;;;;20.39;100.00;101149.28;5026210;28;20050;-54
2022/08/01 09:18:36;;;;;;;2.45;1.02;;;;;;;20.34;100.00;101151.06;5026078;28;20148;-52
2022/08/01 09:21:16;;;;;;;3.08;1.08;;;;;;;20.21;100.00;101144.94;5019837;28;20036;-52
2022/08/01 09:23:53;;;;;;;3.83;1.13;;;;;;;20.18;100.00;101141.88;5020507;28;20083;-53
2022/08/01 09:26:27;;;;;;;1.98;0.93;;;;;;;20.18;100.00;101158.03;5017736;28;20063;-52
2022/08/01 09:28:52;;;;;;;0.90;0.82;;;;;;;20.05;100.00;101151.03;5028807;28;20040;-54
2022/08/01 09:31:19;;;;;;;2.15;0.60;;;;;;;19.97;100.00;101151.41;5027230;28;20467;-56
2022/08/01 09:33:54;;;;;;;4.60;2.10;;;;;;;19.82;100.00;101155.41;5024753;28;20104;-53
2022/08/01 09:36:25;;;;;;;2.60;1.13;;;;;;;19.72;100.00;101155.22;5028696;28;20033;-54
2022/08/01 09:38:53;;;;;;;3.88;0.77;;;;;;;19.83;100.00;101148.19;5032168;28;20041;-50
2022/08/01 09:41:30;;;;;;;5.60;0.70;;;;;;;20.11;100.00;101160.03;5033502;28;20136;-52
2022/08/01 09:43:55;;;;;;;3.72;0.85;;;;;;;20.38;100.00;101149.56;5032202;28;20029;-55
2022/08/01 09:46:21;;;;;;;4.63;0.85;;;;;;;20.50;100.00;101161.09;5026524;28;20526;-56
2022/08/01 09:49:03;;;;;;;3.10;1.30;;;;;;;20.57;100.00;101158.28;5035527;28;20056;-55
2022/08/01 09:51:38;;;;;;;6.30;0.55;;;;;;;20.68;100.00;101160.13;5026230;28;20033;-53
2022/08/01 09:54:06;;;;;;;1.83;0.35;;;;;;;20.65;100.00;101153.34;5017316;28;20044;-51
2022/08/01 09:56:40;;;;;;;3.80;1.35;;;;;;;20.84;100.00;101145.84;5029377;28;20097;-53
2022/08/01 09:59:06;;;;;;;3.55;0.63;;;;;;;20.95;100.00;101148.72;5031948;28;20513;-51
2022/08/01 10:01:51;;;;;;;1.45;0.70;;;;;;;20.80;100.00;101152.78;5029451;28;20385;-56
2022/08/01 10:04:21;;;;;;;1.85;0.38;;;;;;;20.94;100.00;101156.00;5033497;28;20049;-56
2022/08/01 10:06:52;;;;;;;1.38;0.70;;;;;;;20.99;100.00;101145.31;5025151;28;20332;-55
2022/08/01 10:09:28;;;;;;;0.70;0.28;;;;;;;20.97;100.00;101150.13;5034882;28;20149;-51
2022/08/01 10:11:55;;;;;;;3.58;0.40;;;;;;;20.86;100.00;101142.94;5027324;28;20076;-50
2022/08/01 10:14:24;;;;;;;1.55;0.22;;;;;;;20.78;100.00;101152.22;5031480;28;20418;-52
2022/08/01 10:16:50;;;;;;;0.50;0.50;;;;;;;20.71;100.00;101156.13;5027939;28;20026;-53
2022/08/01 10:19:17;;;;;;;3.67;0.47;;;;;;;20.62;100.00;101156.50;5025368;28;20033;-50
2022/08/01 10:21:44;;;;;;;1.23;0.60;;;;;;;20.72;100.00;101149.66;5029320;28;20489;-54
2022/08/01 10:24:11;;;;;;;2.95;0.93;;;;;;;20.81;100.00;101151.75;5032192;28;20033;-56
2022/08/01 10:26:38;;;;;;;0.68;0.25;;;;;;;20.87;100.00;101150.75;5039135;28;20063;-52
2022/08/01 10:29:05;;;;;;;0.82;0.40;;;;;;;20.83;100.00;101144.22;5031815;28;20032;-56
2022/08/01 10:31:32;;;;;;;6.45;1.30;;;;;;;20.82;100.00;101150.66;5033243;28;20045;-56
2022/08/01 10:33:58;;;;;;;3.80;1.05;;;;;;;20.81;100.00;101148.22;5029846;28;20033;-54
2022/08/01 10:36:24;;;;;;;0.85;0.40;;;;;;;20.79;100.00;101142.25;5033768;28;20091;-56
2022/08/01 10:38:50;;;;;;;3.83;0.63;;;;;;;20.96;100.00;101134.19;5040227;28;20033;-54
2022/08/01 10:41:18;;;;;;;3.25;0.30;;;;;;;21.01;100.00;101143.16;5026356;28;20103;-56
2022/08/01 10:43:44;;;;;;;0.93;0.75;;;;;;;21.21;100.00;101139.97;5036000;28;20127;-55
2022/08/01 10:46:10;;;;;;;0.70;0.30;;;;;;;21.65;100.00;101121.22;5023227;28;20196;-57
2022/08/01 10:48:56;;;;;;;1.23;0.55;;;;;;;22.05;100.00;101122.84;5037460;28;20017;-54
2022/08/01 10:51:23;;;;;;;0.40;0.40;;;;;;;22.10;100.00;101133.69;5022375;28;20068;-52
2022/08/01 10:53:53;;;;;;;0.32;0.20;;;;;;;21.92;100.00;101132.13;5025873;28;20107;-54
2022/08/01 10:56:20;;;;;;;0.77;0.50;;;;;;;21.51;100.00;101123.47;5022466;28;20026;-56
2022/08/01 10:58:47;;;;;;;1.67;0.55;;;;;;;21.46;100.00;101128.81;5029668;28;20056;-56
2022/08/01 11:01:31;;;;;;;3.10;0.30;;;;;;;21.61;100.00;101133.59;5026002;28;20045;-56
2022/08/01 11:04:04;;;;;;;2.05;0.57;;;;;;;21.54;100.00;101127.56;5033513;28;20029;-56
2022/08/01 11:06:32;;;;;;;1.17;0.40;;;;;;;21.43;100.00;101140.09;5026189;28;20065;-55
2022/08/01 11:09:00;;;;;;;0.75;0.38;;;;;;;21.39;100.00;101138.94;5018595;28;20033;-55
2022/08/01 11:11:26;;;;;;;2.47;0.22;;;;;;;21.29;100.00;101136.06;5023072;28;20049;-55
2022/08/01 11:13:57;;;;;;;0.32;0.32;;;;;;;21.53;100.00;101131.34;5029322;28;20051;-56
2022/08/01 11:16:29;;;;;;;;;;;;;;;21.72;100.00;101127.28;5028357;28;20034;-55
2022/08/01 11:18:55;;;;;;;0.75;0.75;;;;;;;22.02;100.00;101130.59;5037861;28;20214;-57
2022/08/01 11:21:23;;;;;;;0.20;0.20;;;;;;;22.49;100.00;101122.81;5025853;28;20033;-55